createdAt,value
2022-07-29T00:00:31.531Z,97.80
2022-07-29T00:02:58.718Z,97.70
2022-07-29T00:05:25.994Z,98.00
2022-07-29T00:07:52.988Z,98.10
2022-07-29T00:10:20.092Z,98.10
2022-07-29T00:12:47.483Z,98.30
2022-07-29T00:15:14.600Z,98.40
2022-07-29T00:17:42.043Z,98.40
2022-07-29T00:20:09.971Z,98.40
2022-07-29T00:22:39.723Z,98.40
2022-07-29T00:25:08.571Z,98.50
2022-07-29T00:27:36.951Z,98.60
2022-07-29T00:30:05.603Z,98.70
2022-07-29T00:32:32.711Z,98.80
2022-07-29T00:35:18.086Z,99.00
2022-07-29T00:37:45.255Z,99.00
2022-07-29T00:40:12.604Z,98.90
2022-07-29T00:42:52.343Z,99.00
2022-07-29T00:45:20.529Z,98.90
2022-07-29T00:47:48.203Z,99.00
2022-07-29T00:50:15.471Z,99.10
2022-07-29T00:52:44.082Z,99.10
2022-07-29T00:55:15.281Z,99.00
2022-07-29T00:57:43.561Z,99.20
2022-07-29T01:00:21.760Z,99.30
2022-07-29T01:02:49.489Z,99.20
2022-07-29T01:05:20.692Z,99.30
2022-07-29T01:07:50.613Z,99.40
2022-07-29T01:10:19.534Z,99.50
2022-07-29T01:12:50.491Z,99.60
2022-07-29T01:15:17.747Z,99.70
2022-07-29T01:18:18.207Z,99.90
2022-07-29T01:21:26.728Z,99.90
2022-07-29T01:24:21.630Z,99.90
2022-07-29T01:26:59.224Z,99.90
2022-07-29T01:29:43.249Z,99.90
2022-07-29T01:32:28.514Z,99.90
2022-07-29T01:35:22.323Z,99.90
2022-07-29T01:38:14.063Z,99.90
2022-07-29T01:40:49.321Z,99.90
2022-07-29T01:43:28.738Z,99.90
2022-07-29T01:46:05.689Z,99.90
2022-07-29T01:48:51.712Z,99.90
2022-07-29T01:51:27.348Z,99.90
2022-07-29T01:54:09.964Z,99.90
2022-07-29T01:56:39.362Z,99.90
2022-07-29T01:59:09.478Z,99.90
2022-07-29T02:01:40.818Z,99.90
2022-07-29T02:04:11.227Z,99.90
2022-07-29T02:06:58.382Z,99.90
2022-07-29T02:09:26.819Z,99.90
2022-07-29T02:11:56.214Z,99.90
2022-07-29T02:14:25.640Z,99.90
2022-07-29T02:16:55.518Z,99.90
2022-07-29T02:19:24.544Z,99.90
2022-07-29T02:21:54.762Z,99.90
2022-07-29T02:24:24.613Z,99.90
2022-07-29T02:26:54.115Z,99.90
2022-07-29T02:29:27.643Z,99.90
2022-07-29T02:31:56.408Z,99.90
2022-07-29T02:34:24.308Z,99.90
2022-07-29T02:36:52.775Z,99.90
2022-07-29T02:39:20.719Z,99.90
2022-07-29T02:42:00.795Z,99.90
2022-07-29T02:44:32.747Z,99.90
2022-07-29T02:47:43.288Z,99.90
2022-07-29T02:50:33.985Z,99.90
2022-07-29T02:53:10.266Z,99.90
2022-07-29T02:56:03.124Z,99.90
2022-07-29T02:58:42.411Z,99.90
2022-07-29T03:01:25.333Z,99.90
2022-07-29T03:03:55.060Z,99.90
2022-07-29T03:06:28.297Z,99.90
2022-07-29T03:09:12.834Z,99.90
2022-07-29T03:11:46.372Z,99.90
2022-07-29T03:14:21.763Z,99.90
2022-07-29T03:16:50.403Z,99.90
2022-07-29T03:19:18.471Z,99.90
2022-07-29T03:21:45.612Z,99.90
2022-07-29T03:24:33.662Z,99.90
2022-07-29T03:27:00.800Z,99.90
2022-07-29T03:29:33.771Z,99.90
2022-07-29T03:32:08.371Z,99.90
2022-07-29T03:34:38.219Z,99.90
2022-07-29T03:37:07.200Z,99.90
2022-07-29T03:39:40.716Z,99.90
2022-07-29T03:42:09.917Z,99.90
2022-07-29T03:44:38.291Z,99.90
2022-07-29T03:47:07.574Z,99.90
2022-07-29T03:49:37.994Z,99.90
2022-07-29T03:52:06.640Z,99.90
2022-07-29T03:54:34.012Z,99.90
2022-07-29T03:57:03.134Z,99.90
2022-07-29T03:59:34.016Z,99.90
2022-07-29T04:02:03.936Z,99.90
2022-07-29T04:04:35.498Z,99.90
2022-07-29T04:07:02.637Z,99.90
2022-07-29T04:09:29.725Z,99.90
2022-07-29T04:12:01.889Z,99.90
2022-07-29T04:14:35.425Z,99.90
2022-07-29T04:17:04.028Z,99.90
2022-07-29T04:19:31.816Z,99.90
2022-07-29T04:22:00.456Z,99.90
2022-07-29T04:24:27.842Z,99.90
2022-07-29T04:26:55.803Z,99.90
2022-07-29T04:29:23.275Z,99.90
2022-07-29T04:31:50.277Z,99.90
2022-07-29T04:34:17.525Z,99.90
2022-07-29T04:36:44.777Z,99.90
2022-07-29T04:39:11.723Z,99.90
2022-07-29T04:41:38.665Z,99.90
2022-07-29T04:44:07.089Z,99.90
2022-07-29T04:46:35.914Z,99.90
2022-07-29T04:49:04.360Z,99.90
2022-07-29T04:51:31.981Z,99.90
2022-07-29T04:53:59.055Z,99.90
2022-07-29T04:56:26.021Z,99.90
2022-07-29T04:58:53.534Z,99.90
2022-07-29T05:01:20.934Z,99.90
2022-07-29T05:03:47.984Z,99.90
2022-07-29T05:06:15.000Z,99.90
2022-07-29T05:08:42.159Z,99.90
2022-07-29T05:11:11.650Z,99.90
2022-07-29T05:13:45.324Z,99.90
2022-07-29T05:16:14.754Z,99.90
2022-07-29T05:18:43.184Z,99.90
2022-07-29T05:21:10.311Z,99.90
2022-07-29T05:23:37.364Z,99.90
2022-07-29T05:26:04.402Z,99.90
2022-07-29T05:28:36.090Z,99.90
2022-07-29T05:31:03.411Z,99.90
2022-07-29T05:33:35.248Z,99.90
2022-07-29T05:36:07.610Z,99.90
2022-07-29T05:38:36.574Z,99.90
2022-07-29T05:41:05.357Z,99.90
2022-07-29T05:43:32.754Z,99.90
2022-07-29T05:45:59.871Z,99.90
2022-07-29T05:48:26.942Z,99.90
2022-07-29T05:50:54.356Z,99.90
2022-07-29T05:53:21.533Z,99.90
2022-07-29T05:55:49.872Z,99.90
2022-07-29T05:58:17.336Z,99.90
2022-07-29T06:00:44.429Z,99.90
2022-07-29T06:03:11.591Z,99.90
2022-07-29T06:05:38.618Z,99.90
2022-07-29T06:08:09.024Z,99.90
2022-07-29T06:10:37.148Z,99.90
2022-07-29T06:13:04.361Z,99.90
2022-07-29T06:15:31.405Z,99.90
2022-07-29T06:18:00.672Z,99.90
2022-07-29T06:20:32.524Z,99.90
2022-07-29T06:23:00.334Z,99.20
2022-07-29T06:25:30.228Z,99.90
2022-07-29T06:27:58.343Z,99.80
2022-07-29T06:30:25.342Z,99.90
2022-07-29T06:32:52.745Z,99.80
2022-07-29T06:35:38.765Z,99.90
2022-07-29T06:38:14.937Z,99.90
2022-07-29T06:41:07.000Z,99.90
2022-07-29T06:43:52.377Z,99.50
2022-07-29T06:46:23.037Z,99.70
2022-07-29T06:48:50.584Z,99.90
2022-07-29T06:51:22.760Z,99.60
2022-07-29T06:53:59.590Z,99.30
2022-07-29T06:56:42.519Z,98.80
2022-07-29T06:59:11.611Z,99.10
2022-07-29T07:01:44.275Z,98.90
2022-07-29T07:04:12.215Z,98.90
2022-07-29T07:06:39.612Z,98.60
2022-07-29T07:09:06.933Z,98.60
2022-07-29T07:11:34.208Z,98.50
2022-07-29T07:14:03.724Z,98.40
2022-07-29T07:16:32.363Z,97.70
2022-07-29T07:18:59.496Z,97.50
2022-07-29T07:21:26.600Z,97.50
2022-07-29T07:23:57.471Z,96.90
2022-07-29T07:26:24.523Z,97.50
2022-07-29T07:28:51.560Z,97.30
2022-07-29T07:31:18.631Z,97.50
2022-07-29T07:33:45.688Z,96.10
2022-07-29T07:36:12.877Z,96.80
2022-07-29T07:38:39.838Z,96.70
2022-07-29T07:41:06.938Z,96.70
2022-07-29T07:43:34.088Z,96.50
2022-07-29T07:46:01.078Z,95.10
2022-07-29T07:48:28.075Z,94.90
2022-07-29T07:50:55.186Z,94.70
2022-07-29T07:53:22.847Z,94.20
2022-07-29T07:58:37.222Z,94.70
2022-07-29T08:01:04.415Z,94.20
2022-07-29T08:03:31.467Z,94.60
2022-07-29T08:05:58.567Z,93.20
2022-07-29T08:08:25.900Z,92.00
2022-07-29T08:10:53.123Z,92.40
2022-07-29T08:13:28.203Z,91.40
2022-07-29T08:15:59.148Z,92.00
2022-07-29T08:18:28.043Z,92.00
2022-07-29T08:20:55.492Z,90.90
2022-07-29T08:23:24.042Z,90.70
2022-07-29T08:25:52.483Z,90.70
2022-07-29T08:28:26.020Z,90.60
2022-07-29T08:30:54.436Z,91.20
2022-07-29T08:33:22.133Z,90.50
2022-07-29T08:35:50.927Z,89.80
2022-07-29T08:38:17.852Z,88.10
2022-07-29T08:40:44.924Z,86.90
2022-07-29T08:43:11.893Z,84.50
2022-07-29T08:45:48.815Z,83.60
2022-07-29T08:48:22.806Z,82.90
2022-07-29T08:50:56.740Z,84.10
2022-07-29T08:53:27.744Z,83.60
2022-07-29T08:55:55.786Z,82.50
2022-07-29T08:58:25.322Z,80.70
2022-07-29T09:00:55.752Z,81.40
2022-07-29T09:03:31.652Z,81.30
2022-07-29T09:06:00.640Z,82.20
2022-07-29T09:08:28.151Z,83.00
2022-07-29T09:10:59.699Z,80.80
2022-07-29T09:13:27.224Z,79.10
2022-07-29T09:15:55.307Z,79.60
2022-07-29T09:18:43.229Z,80.70
2022-07-29T09:21:36.577Z,76.70
2022-07-29T09:24:13.095Z,76.70
2022-07-29T09:26:43.933Z,76.00
2022-07-29T09:29:13.865Z,76.90
2022-07-29T09:31:44.432Z,79.20
2022-07-29T09:34:13.463Z,79.20
2022-07-29T09:36:47.171Z,77.60
2022-07-29T09:39:17.895Z,76.60
2022-07-29T09:41:55.700Z,77.20
2022-07-29T09:44:24.789Z,75.80
2022-07-29T09:47:00.650Z,73.30
2022-07-29T09:49:28.184Z,73.70
2022-07-29T09:52:22.349Z,75.90
2022-07-29T09:54:49.992Z,73.70
2022-07-29T09:57:30.177Z,73.70
2022-07-29T10:00:03.258Z,74.60
2022-07-29T10:02:52.419Z,71.60
2022-07-29T10:05:26.079Z,70.80
2022-07-29T10:07:57.607Z,71.90
2022-07-29T10:10:31.506Z,71.90
2022-07-29T10:13:09.795Z,71.80
2022-07-29T10:15:45.239Z,71.00
2022-07-29T10:18:18.589Z,66.10
2022-07-29T10:20:46.250Z,67.40
2022-07-29T10:23:13.653Z,67.00
2022-07-29T10:25:46.059Z,66.60
2022-07-29T10:28:16.535Z,65.90
2022-07-29T10:30:45.807Z,64.50
2022-07-29T10:33:47.455Z,64.90
2022-07-29T10:36:44.400Z,64.60
2022-07-29T10:39:49.775Z,62.70
2022-07-29T10:42:29.574Z,63.20
2022-07-29T10:45:04.350Z,63.10
2022-07-29T10:47:32.181Z,62.50
2022-07-29T10:50:06.520Z,61.30
2022-07-29T10:52:54.618Z,61.10
2022-07-29T10:55:43.072Z,59.40
2022-07-29T10:58:19.041Z,59.90
2022-07-29T11:01:37.299Z,62.10
2022-07-29T11:04:06.191Z,60.70
2022-07-29T11:07:06.402Z,60.90
2022-07-29T11:09:37.454Z,59.30
2022-07-29T11:12:48.345Z,59.80
2022-07-29T11:15:18.370Z,60.30
2022-07-29T11:17:54.440Z,59.00
2022-07-29T11:20:45.549Z,59.10
2022-07-29T11:23:36.822Z,59.80
2022-07-29T11:26:24.773Z,60.10
2022-07-29T11:28:54.365Z,60.80
2022-07-29T11:31:34.906Z,62.90
2022-07-29T11:34:30.363Z,59.40
2022-07-29T11:37:17.990Z,59.00
2022-07-29T11:40:00.297Z,58.00
2022-07-29T11:42:33.029Z,56.40
2022-07-29T11:45:41.622Z,55.90
2022-07-29T11:48:19.640Z,53.30
2022-07-29T11:50:48.371Z,51.40
2022-07-29T11:53:16.469Z,50.70
2022-07-29T11:55:51.757Z,49.00
2022-07-29T11:58:25.043Z,50.40
2022-07-29T12:00:55.647Z,48.80
2022-07-29T12:03:33.613Z,50.20
2022-07-29T12:06:04.791Z,47.40
2022-07-29T12:08:43.510Z,46.10
2022-07-29T12:11:23.448Z,46.20
2022-07-29T12:13:52.536Z,45.30
2022-07-29T12:16:25.547Z,45.00
2022-07-29T12:19:02.469Z,44.00
2022-07-29T12:22:02.245Z,43.20
2022-07-29T12:24:45.076Z,42.30
2022-07-29T12:27:12.961Z,43.80
2022-07-29T12:29:42.001Z,44.50
2022-07-29T12:32:19.648Z,43.80
2022-07-29T12:34:47.389Z,44.30
2022-07-29T12:37:14.642Z,43.60
2022-07-29T12:39:41.709Z,45.00
2022-07-29T12:42:15.034Z,48.30
2022-07-29T12:44:50.666Z,48.70
2022-07-29T12:47:19.177Z,50.10
2022-07-29T12:49:47.795Z,52.30
2022-07-29T12:52:34.429Z,53.60
2022-07-29T12:55:01.942Z,54.20
2022-07-29T12:57:29.860Z,55.60
2022-07-29T13:00:16.356Z,56.60
2022-07-29T13:02:44.672Z,58.50
2022-07-29T13:05:13.810Z,59.60
2022-07-29T13:07:55.348Z,61.30
2022-07-29T13:10:25.759Z,62.20
2022-07-29T13:13:16.423Z,62.30
2022-07-29T13:15:45.424Z,63.20
2022-07-29T13:18:33.447Z,63.60
2022-07-29T13:21:14.175Z,60.50
2022-07-29T13:23:41.378Z,61.20
2022-07-29T13:26:10.375Z,63.50
2022-07-29T13:28:37.366Z,65.40
2022-07-29T13:31:04.492Z,67.00
2022-07-29T13:33:31.637Z,65.60
2022-07-29T13:35:58.660Z,65.30
2022-07-29T13:38:30.973Z,63.90
2022-07-29T13:40:58.465Z,61.50
2022-07-29T13:43:25.402Z,62.20
2022-07-29T13:45:53.076Z,60.10
2022-07-29T13:48:20.163Z,58.80
2022-07-29T13:50:47.621Z,58.40
2022-07-29T13:53:17.688Z,56.30
2022-07-29T13:55:45.324Z,54.80
2022-07-29T13:58:12.367Z,55.00
2022-07-29T14:00:39.444Z,55.50
2022-07-29T14:03:07.473Z,54.80
2022-07-29T14:05:34.562Z,56.40
2022-07-29T14:08:01.491Z,55.40
2022-07-29T14:10:28.508Z,52.70
2022-07-29T14:12:55.552Z,54.20
2022-07-29T14:15:22.646Z,53.20
2022-07-29T14:17:49.811Z,51.80
2022-07-29T14:20:17.255Z,50.30
2022-07-29T14:22:44.991Z,50.70
2022-07-29T14:25:15.208Z,49.00
2022-07-29T14:27:44.596Z,50.70
2022-07-29T14:30:12.169Z,48.40
2022-07-29T14:32:39.139Z,47.30
2022-07-29T14:35:07.868Z,46.00
2022-07-29T14:37:37.659Z,47.00
2022-07-29T14:40:09.152Z,47.90
2022-07-29T14:42:37.256Z,48.50
2022-07-29T14:45:06.704Z,46.90
2022-07-29T14:47:35.239Z,47.40
2022-07-29T14:50:03.010Z,45.90
2022-07-29T14:52:30.564Z,46.50
2022-07-29T14:54:57.557Z,46.20
2022-07-29T14:57:24.597Z,47.50
2022-07-29T14:59:51.834Z,49.00
2022-07-29T15:02:18.908Z,51.40
2022-07-29T15:04:47.022Z,49.10
2022-07-29T15:07:14.934Z,49.50
2022-07-29T15:09:49.921Z,50.00
2022-07-29T15:12:17.473Z,51.80
2022-07-29T15:14:44.448Z,52.20
2022-07-29T15:17:11.542Z,51.20
2022-07-29T15:19:38.799Z,52.50
2022-07-29T15:22:11.871Z,50.40
2022-07-29T15:24:38.845Z,53.50
2022-07-29T15:27:06.090Z,50.70
2022-07-29T15:29:33.803Z,50.30
2022-07-29T15:32:01.215Z,54.10
2022-07-29T15:34:28.521Z,57.10
2022-07-29T15:36:55.445Z,59.60
2022-07-29T15:39:23.181Z,60.20
2022-07-29T15:41:51.084Z,61.50
2022-07-29T15:44:18.998Z,64.70
2022-07-29T15:47:04.235Z,61.80
2022-07-29T15:49:47.788Z,62.30
2022-07-29T15:52:26.107Z,61.40
2022-07-29T15:54:55.725Z,61.50
2022-07-29T15:57:24.686Z,61.30
2022-07-29T15:59:52.141Z,63.70
2022-07-29T16:02:19.546Z,62.60
2022-07-29T16:04:46.622Z,63.10
2022-07-29T16:07:14.265Z,65.40
2022-07-29T16:09:42.434Z,64.90
2022-07-29T16:12:13.659Z,66.20
2022-07-29T16:14:43.508Z,66.50
2022-07-29T16:17:14.499Z,66.30
2022-07-29T16:19:43.548Z,66.10
2022-07-29T16:22:11.463Z,67.80
2022-07-29T16:24:38.991Z,67.60
2022-07-29T16:27:08.784Z,68.10
2022-07-29T16:29:37.148Z,67.30
2022-07-29T16:32:06.032Z,69.40
2022-07-29T16:34:33.402Z,68.80
2022-07-29T16:37:00.809Z,67.80
2022-07-29T16:39:29.228Z,68.50
2022-07-29T16:42:00.452Z,66.00
2022-07-29T16:44:28.633Z,64.30
2022-07-29T16:46:58.898Z,63.80
2022-07-29T16:49:27.542Z,64.40
2022-07-29T16:51:54.859Z,64.30
2022-07-29T16:54:21.831Z,64.10
2022-07-29T16:56:48.758Z,65.30
2022-07-29T16:59:15.840Z,65.90
2022-07-29T17:01:42.904Z,66.00
2022-07-29T17:04:11.052Z,66.20
2022-07-29T17:06:40.846Z,67.50
2022-07-29T17:09:10.971Z,67.40
2022-07-29T17:11:54.078Z,68.80
2022-07-29T17:14:26.913Z,70.50
2022-07-29T17:17:01.195Z,74.40
2022-07-29T17:19:35.438Z,77.40
2022-07-29T17:22:11.696Z,80.00
2022-07-29T17:24:41.742Z,82.50
2022-07-29T17:27:10.262Z,85.00
2022-07-29T17:29:39.139Z,87.50
2022-07-29T17:32:07.575Z,89.90
2022-07-29T17:34:36.743Z,91.10
2022-07-29T17:37:05.588Z,92.20
2022-07-29T17:39:35.027Z,92.80
2022-07-29T17:42:03.855Z,93.70
2022-07-29T17:44:31.162Z,94.40
2022-07-29T17:47:00.413Z,95.30
2022-07-29T17:49:28.120Z,96.00
2022-07-29T17:51:59.019Z,96.80
2022-07-29T17:54:28.078Z,97.60
2022-07-29T17:56:55.491Z,98.50
2022-07-29T17:59:22.666Z,99.00
2022-07-29T18:01:49.627Z,99.40
2022-07-29T18:04:20.217Z,99.60
2022-07-29T18:06:47.339Z,99.90
2022-07-29T18:09:14.348Z,99.90
2022-07-29T18:11:44.408Z,99.90
2022-07-29T18:14:13.127Z,99.90
2022-07-29T18:16:40.870Z,99.90
2022-07-29T18:19:08.952Z,99.90
2022-07-29T18:21:41.090Z,99.90
2022-07-29T18:24:21.357Z,99.90
2022-07-29T18:26:48.288Z,99.90
2022-07-29T18:29:15.342Z,99.90
2022-07-29T18:31:42.415Z,99.90
2022-07-29T18:34:09.457Z,99.90
2022-07-29T18:36:36.533Z,99.90
2022-07-29T18:39:03.942Z,99.90
2022-07-29T18:41:31.373Z,99.90
2022-07-29T18:43:58.655Z,99.90
2022-07-29T18:46:25.736Z,99.90
2022-07-29T18:48:52.825Z,99.90
2022-07-29T18:51:19.799Z,99.90
2022-07-29T18:53:46.865Z,99.90
2022-07-29T18:56:13.990Z,99.90
2022-07-29T18:58:40.927Z,99.90
2022-07-29T19:01:08.061Z,99.90
2022-07-29T19:03:35.180Z,99.90
2022-07-29T19:06:02.132Z,99.00
2022-07-29T19:08:29.156Z,98.40
2022-07-29T19:10:56.115Z,98.30
2022-07-29T19:13:23.163Z,98.90
2022-07-29T19:15:50.185Z,99.70
2022-07-29T19:18:17.258Z,99.90
2022-07-29T19:20:44.182Z,99.90
2022-07-29T19:23:11.565Z,99.90
2022-07-29T19:25:53.019Z,99.90
2022-07-29T19:28:22.018Z,99.90
2022-07-29T19:30:49.999Z,99.90
2022-07-29T19:33:18.851Z,99.90
2022-07-29T19:35:47.641Z,99.90
2022-07-29T19:38:16.698Z,99.90
2022-07-29T19:40:44.043Z,99.90
2022-07-29T19:43:49.845Z,99.90
2022-07-29T19:45:58.145Z,99.90
2022-07-29T19:48:25.069Z,99.90
2022-07-29T19:50:52.004Z,99.90
2022-07-29T19:53:18.949Z,99.90
2022-07-29T19:55:45.931Z,99.90
2022-07-29T19:58:12.849Z,99.90
2022-07-29T20:00:40.153Z,99.90
2022-07-29T20:03:07.348Z,99.90
2022-07-29T20:05:34.579Z,99.90
2022-07-29T20:08:04.753Z,99.90
2022-07-29T20:10:32.707Z,99.90
2022-07-29T20:12:59.655Z,99.90
2022-07-29T20:15:26.751Z,99.90
2022-07-29T20:17:57.191Z,99.90
2022-07-29T20:20:25.291Z,99.90
2022-07-29T20:22:53.059Z,99.90
2022-07-29T20:25:20.329Z,99.90
2022-07-29T20:27:49.552Z,99.90
2022-07-29T20:30:16.673Z,99.90
2022-07-29T20:32:45.877Z,99.90
2022-07-29T20:35:13.414Z,99.90
2022-07-29T20:37:55.757Z,99.90
2022-07-29T20:40:25.689Z,99.90
2022-07-29T20:42:54.067Z,99.90
2022-07-29T20:45:21.845Z,99.90
2022-07-29T20:47:50.645Z,99.90
2022-07-29T20:50:19.354Z,99.90
2022-07-29T20:52:46.331Z,99.90
2022-07-29T20:55:15.802Z,99.90
2022-07-29T20:57:43.030Z,99.90
2022-07-29T21:00:10.910Z,99.90
2022-07-29T21:02:37.967Z,99.90
2022-07-29T21:05:05.743Z,99.90
2022-07-29T21:07:32.681Z,99.90
2022-07-29T21:09:59.752Z,99.90
2022-07-29T21:12:26.842Z,99.90
2022-07-29T21:14:53.756Z,99.90
2022-07-29T21:17:22.633Z,99.90
2022-07-29T21:19:55.324Z,99.90
2022-07-29T21:22:22.554Z,99.90
2022-07-29T21:24:50.020Z,99.90
2022-07-29T21:27:38.177Z,99.90
2022-07-29T21:30:09.787Z,99.90
2022-07-29T21:32:37.081Z,99.90
2022-07-29T21:35:14.609Z,99.90
2022-07-29T21:37:49.257Z,99.90
2022-07-29T21:40:16.224Z,99.90
2022-07-29T21:42:43.154Z,99.90
2022-07-29T21:45:15.584Z,99.90
2022-07-29T21:47:42.562Z,99.90
2022-07-29T21:50:09.877Z,99.90
2022-07-29T21:52:37.358Z,99.90
2022-07-29T21:55:04.852Z,99.90
2022-07-29T21:57:31.974Z,99.90
2022-07-29T22:00:02.625Z,99.90
2022-07-29T22:02:30.279Z,99.90
2022-07-29T22:04:57.198Z,99.90
2022-07-29T22:07:24.261Z,99.90
2022-07-29T22:10:11.762Z,99.90
2022-07-29T22:12:38.735Z,99.90
2022-07-29T22:15:06.316Z,99.90
2022-07-29T22:17:33.453Z,99.90
2022-07-29T22:20:00.605Z,99.90
2022-07-29T22:22:28.106Z,99.90
2022-07-29T22:24:55.752Z,99.90
2022-07-29T22:27:23.120Z,99.90
2022-07-29T22:29:50.143Z,99.90
2022-07-29T22:32:17.077Z,99.90
2022-07-29T22:34:44.057Z,99.90
2022-07-29T22:37:11.019Z,99.90
2022-07-29T22:39:37.956Z,99.90
2022-07-29T22:42:05.219Z,99.90
2022-07-29T22:44:32.229Z,99.90
2022-07-29T22:47:00.735Z,99.90
2022-07-29T22:49:27.859Z,99.90
2022-07-29T22:51:54.777Z,99.90
2022-07-29T22:54:21.770Z,99.90
2022-07-29T22:56:48.814Z,99.90
2022-07-29T22:59:15.750Z,99.90
2022-07-29T23:01:42.738Z,99.90
2022-07-29T23:04:09.843Z,99.90
2022-07-29T23:06:37.002Z,99.90
2022-07-29T23:09:04.865Z,99.90
2022-07-29T23:11:31.904Z,99.90
2022-07-29T23:13:58.851Z,99.90
2022-07-29T23:16:26.778Z,99.90
2022-07-29T23:18:54.831Z,99.90
2022-07-29T23:21:21.844Z,99.90
2022-07-29T23:23:49.278Z,99.90
2022-07-29T23:26:16.927Z,99.90
2022-07-29T23:28:45.391Z,99.90
2022-07-29T23:31:13.491Z,99.90
2022-07-29T23:33:41.541Z,99.90
2022-07-29T23:36:08.771Z,99.90
2022-07-29T23:38:39.287Z,99.90
2022-07-29T23:41:08.951Z,99.90
2022-07-29T23:43:37.378Z,99.90
2022-07-29T23:46:05.138Z,99.90
2022-07-29T23:48:33.404Z,99.90
2022-07-29T23:51:01.128Z,99.90
2022-07-29T23:53:28.682Z,99.90
2022-07-29T23:55:56.739Z,99.90
2022-07-29T23:58:24.218Z,99.90
